sensor_id;sensor_type;location;lat;lon;timestamp;P1;durP1;ratioP1;P2;durP2;ratioP2
75470;SDS011;64051;46.320;48.028;2022-11-14T00:02:00;8.52;;;2.70;;
75470;SDS011;64051;46.320;48.028;2022-11-14T00:04:45;7.68;;;2.83;;
75470;SDS011;64051;46.320;48.028;2022-11-14T00:07:30;8.70;;;2.90;;
75470;SDS011;64051;46.320;48.028;2022-11-14T00:10:15;6.65;;;2.38;;
75470;SDS011;64051;46.320;48.028;2022-11-14T00:13:00;6.63;;;2.65;;
75470;SDS011;64051;46.320;48.028;2022-11-14T00:15:47;4.45;;;2.20;;
75470;SDS011;64051;46.320;48.028;2022-11-14T00:18:33;3.72;;;1.88;;
75470;SDS011;64051;46.320;48.028;2022-11-14T00:21:17;4.75;;;1.77;;
75470;SDS011;64051;46.320;48.028;2022-11-14T00:24:02;4.63;;;2.00;;
75470;SDS011;64051;46.320;48.028;2022-11-14T00:26:47;4.75;;;2.28;;
75470;SDS011;64051;46.320;48.028;2022-11-14T00:29:31;4.45;;;1.88;;
75470;SDS011;64051;46.320;48.028;2022-11-14T00:32:16;4.82;;;2.15;;
75470;SDS011;64051;46.320;48.028;2022-11-14T00:35:01;2.83;;;1.58;;
75470;SDS011;64051;46.320;48.028;2022-11-14T00:37:45;3.75;;;1.65;;
75470;SDS011;64051;46.320;48.028;2022-11-14T00:40:30;4.57;;;2.08;;
75470;SDS011;64051;46.320;48.028;2022-11-14T00:43:14;5.47;;;2.00;;
75470;SDS011;64051;46.320;48.028;2022-11-14T00:45:59;4.20;;;2.17;;
75470;SDS011;64051;46.320;48.028;2022-11-14T00:48:43;6.45;;;2.50;;
75470;SDS011;64051;46.320;48.028;2022-11-14T00:51:28;5.43;;;2.30;;
75470;SDS011;64051;46.320;48.028;2022-11-14T00:54:12;4.50;;;2.30;;
75470;SDS011;64051;46.320;48.028;2022-11-14T00:56:57;5.85;;;2.40;;
75470;SDS011;64051;46.320;48.028;2022-11-14T00:59:41;5.00;;;2.28;;
75470;SDS011;64051;46.320;48.028;2022-11-14T01:02:26;6.28;;;2.55;;
75470;SDS011;64051;46.320;48.028;2022-11-14T01:05:10;4.03;;;2.13;;
75470;SDS011;64051;46.320;48.028;2022-11-14T01:07:55;8.38;;;2.63;;
75470;SDS011;64051;46.320;48.028;2022-11-14T01:10:40;5.18;;;2.25;;
75470;SDS011;64051;46.320;48.028;2022-11-14T01:13:29;6.43;;;2.85;;
75470;SDS011;64051;46.320;48.028;2022-11-14T01:16:15;7.95;;;2.83;;
75470;SDS011;64051;46.320;48.028;2022-11-14T01:18:59;5.60;;;2.30;;
75470;SDS011;64051;46.320;48.028;2022-11-14T01:21:44;5.95;;;2.75;;
75470;SDS011;64051;46.320;48.028;2022-11-14T01:24:30;3.17;;;1.63;;
75470;SDS011;64051;46.320;48.028;2022-11-14T01:27:16;5.53;;;2.30;;
75470;SDS011;64051;46.320;48.028;2022-11-14T01:30:01;5.55;;;1.90;;
75470;SDS011;64051;46.320;48.028;2022-11-14T01:32:46;4.25;;;2.05;;
75470;SDS011;64051;46.320;48.028;2022-11-14T01:35:32;4.47;;;2.10;;
75470;SDS011;64051;46.320;48.028;2022-11-14T01:38:16;11.27;;;1.90;;
75470;SDS011;64051;46.320;48.028;2022-11-14T01:41:01;3.42;;;1.75;;
75470;SDS011;64051;46.320;48.028;2022-11-14T01:43:46;3.45;;;1.60;;
75470;SDS011;64051;46.320;48.028;2022-11-14T01:46:33;3.13;;;1.20;;
75470;SDS011;64051;46.320;48.028;2022-11-14T01:49:28;2.00;;;1.20;;
75470;SDS011;64051;46.320;48.028;2022-11-14T01:52:24;1.80;;;1.10;;
75470;SDS011;64051;46.320;48.028;2022-11-14T01:55:17;2.65;;;1.20;;
75470;SDS011;64051;46.320;48.028;2022-11-14T01:58:01;1.70;;;0.98;;
75470;SDS011;64051;46.320;48.028;2022-11-14T02:00:46;1.33;;;0.93;;
75470;SDS011;64051;46.320;48.028;2022-11-14T02:03:30;1.63;;;0.90;;
75470;SDS011;64051;46.320;48.028;2022-11-14T02:06:19;1.95;;;0.90;;
75470;SDS011;64051;46.320;48.028;2022-11-14T02:09:05;3.03;;;1.02;;
75470;SDS011;64051;46.320;48.028;2022-11-14T02:11:50;2.30;;;0.70;;
75470;SDS011;64051;46.320;48.028;2022-11-14T02:14:37;1.52;;;0.95;;
75470;SDS011;64051;46.320;48.028;2022-11-14T02:17:24;1.42;;;0.82;;
75470;SDS011;64051;46.320;48.028;2022-11-14T02:22:54;5.03;;;0.93;;
75470;SDS011;64051;46.320;48.028;2022-11-14T02:25:39;1.13;;;0.75;;
75470;SDS011;64051;46.320;48.028;2022-11-14T02:28:24;0.52;;;0.52;;
75470;SDS011;64051;46.320;48.028;2022-11-14T02:31:09;0.50;;;0.50;;
75470;SDS011;64051;46.320;48.028;2022-11-14T02:33:53;0.95;;;0.80;;
75470;SDS011;64051;46.320;48.028;2022-11-14T02:36:38;2.10;;;0.60;;
75470;SDS011;64051;46.320;48.028;2022-11-14T02:39:22;0.82;;;0.50;;
75470;SDS011;64051;46.320;48.028;2022-11-14T02:42:07;0.68;;;0.68;;
75470;SDS011;64051;46.320;48.028;2022-11-14T02:44:52;1.92;;;0.60;;
75470;SDS011;64051;46.320;48.028;2022-11-14T02:47:37;0.68;;;0.60;;
75470;SDS011;64051;46.320;48.028;2022-11-14T02:50:21;1.33;;;0.80;;
75470;SDS011;64051;46.320;48.028;2022-11-14T02:53:06;1.30;;;0.95;;
75470;SDS011;64051;46.320;48.028;2022-11-14T02:55:50;2.83;;;0.73;;
75470;SDS011;64051;46.320;48.028;2022-11-14T02:58:35;0.90;;;0.73;;
75470;SDS011;64051;46.320;48.028;2022-11-14T03:01:19;1.60;;;0.70;;
75470;SDS011;64051;46.320;48.028;2022-11-14T03:04:04;0.52;;;0.52;;
75470;SDS011;64051;46.320;48.028;2022-11-14T03:06:48;2.28;;;0.85;;
75470;SDS011;64051;46.320;48.028;2022-11-14T03:09:32;2.55;;;0.77;;
75470;SDS011;64051;46.320;48.028;2022-11-14T03:12:17;1.67;;;0.82;;
75470;SDS011;64051;46.320;48.028;2022-11-14T03:15:04;5.18;;;0.90;;
75470;SDS011;64051;46.320;48.028;2022-11-14T03:17:49;1.52;;;0.90;;
75470;SDS011;64051;46.320;48.028;2022-11-14T03:20:34;2.38;;;1.00;;
75470;SDS011;64051;46.320;48.028;2022-11-14T03:23:18;2.20;;;0.98;;
75470;SDS011;64051;46.320;48.028;2022-11-14T03:26:04;3.13;;;1.40;;
75470;SDS011;64051;46.320;48.028;2022-11-14T03:28:50;2.50;;;1.58;;
75470;SDS011;64051;46.320;48.028;2022-11-14T03:31:35;5.70;;;1.70;;
75470;SDS011;64051;46.320;48.028;2022-11-14T03:34:19;3.35;;;1.40;;
75470;SDS011;64051;46.320;48.028;2022-11-14T03:37:04;5.63;;;1.80;;
75470;SDS011;64051;46.320;48.028;2022-11-14T03:39:48;6.28;;;1.83;;
75470;SDS011;64051;46.320;48.028;2022-11-14T03:42:33;3.45;;;1.40;;
75470;SDS011;64051;46.320;48.028;2022-11-14T03:45:18;4.13;;;1.70;;
75470;SDS011;64051;46.320;48.028;2022-11-14T03:48:03;5.30;;;1.60;;
75470;SDS011;64051;46.320;48.028;2022-11-14T03:50:49;6.28;;;2.17;;
75470;SDS011;64051;46.320;48.028;2022-11-14T03:53:33;3.00;;;1.40;;
75470;SDS011;64051;46.320;48.028;2022-11-14T03:56:17;4.95;;;1.95;;
75470;SDS011;64051;46.320;48.028;2022-11-14T03:59:02;4.15;;;1.90;;
75470;SDS011;64051;46.320;48.028;2022-11-14T04:01:47;3.60;;;1.63;;
75470;SDS011;64051;46.320;48.028;2022-11-14T04:04:32;2.03;;;0.98;;
75470;SDS011;64051;46.320;48.028;2022-11-14T04:07:19;2.08;;;1.13;;
75470;SDS011;64051;46.320;48.028;2022-11-14T04:10:03;2.72;;;1.50;;
75470;SDS011;64051;46.320;48.028;2022-11-14T04:12:49;4.18;;;1.20;;
75470;SDS011;64051;46.320;48.028;2022-11-14T04:15:35;1.65;;;1.05;;
75470;SDS011;64051;46.320;48.028;2022-11-14T04:18:20;3.85;;;1.33;;
75470;SDS011;64051;46.320;48.028;2022-11-14T04:21:04;1.27;;;1.00;;
75470;SDS011;64051;46.320;48.028;2022-11-14T04:23:49;1.58;;;1.20;;
75470;SDS011;64051;46.320;48.028;2022-11-14T04:26:33;1.67;;;0.70;;
75470;SDS011;64051;46.320;48.028;2022-11-14T04:29:18;2.85;;;0.98;;
75470;SDS011;64051;46.320;48.028;2022-11-14T04:32:03;1.40;;;0.88;;
75470;SDS011;64051;46.320;48.028;2022-11-14T04:34:47;3.05;;;0.90;;
75470;SDS011;64051;46.320;48.028;2022-11-14T04:37:32;2.63;;;0.63;;
75470;SDS011;64051;46.320;48.028;2022-11-14T04:40:16;2.30;;;0.70;;
75470;SDS011;64051;46.320;48.028;2022-11-14T04:43:01;1.85;;;1.13;;
75470;SDS011;64051;46.320;48.028;2022-11-14T04:45:45;3.85;;;1.23;;
75470;SDS011;64051;46.320;48.028;2022-11-14T04:48:30;5.00;;;0.75;;
75470;SDS011;64051;46.320;48.028;2022-11-14T04:51:15;4.78;;;1.15;;
75470;SDS011;64051;46.320;48.028;2022-11-14T04:54:02;4.53;;;0.90;;
75470;SDS011;64051;46.320;48.028;2022-11-14T04:56:47;0.77;;;0.77;;
75470;SDS011;64051;46.320;48.028;2022-11-14T04:59:32;2.03;;;1.00;;
75470;SDS011;64051;46.320;48.028;2022-11-14T05:02:16;2.42;;;0.63;;
75470;SDS011;64051;46.320;48.028;2022-11-14T05:05:01;0.98;;;0.80;;
75470;SDS011;64051;46.320;48.028;2022-11-14T05:07:45;4.95;;;0.90;;
75470;SDS011;64051;46.320;48.028;2022-11-14T05:10:30;1.20;;;0.90;;
75470;SDS011;64051;46.320;48.028;2022-11-14T05:13:14;2.22;;;0.98;;
75470;SDS011;64051;46.320;48.028;2022-11-14T05:15:59;2.45;;;0.77;;
75470;SDS011;64051;46.320;48.028;2022-11-14T05:18:44;1.55;;;0.77;;
75470;SDS011;64051;46.320;48.028;2022-11-14T05:21:28;1.63;;;0.88;;
75470;SDS011;64051;46.320;48.028;2022-11-14T05:24:13;3.10;;;0.90;;
75470;SDS011;64051;46.320;48.028;2022-11-14T05:26:57;1.30;;;0.80;;
75470;SDS011;64051;46.320;48.028;2022-11-14T05:29:42;0.70;;;0.68;;
75470;SDS011;64051;46.320;48.028;2022-11-14T05:32:27;0.88;;;0.57;;
75470;SDS011;64051;46.320;48.028;2022-11-14T05:35:11;0.93;;;0.60;;
75470;SDS011;64051;46.320;48.028;2022-11-14T05:37:59;2.08;;;0.77;;
75470;SDS011;64051;46.320;48.028;2022-11-14T05:40:44;0.93;;;0.70;;
75470;SDS011;64051;46.320;48.028;2022-11-14T05:43:29;1.40;;;0.85;;
75470;SDS011;64051;46.320;48.028;2022-11-14T05:46:14;1.63;;;0.90;;
75470;SDS011;64051;46.320;48.028;2022-11-14T05:48:59;1.20;;;0.80;;
75470;SDS011;64051;46.320;48.028;2022-11-14T05:51:44;0.82;;;0.68;;
75470;SDS011;64051;46.320;48.028;2022-11-14T05:54:29;2.50;;;0.88;;
75470;SDS011;64051;46.320;48.028;2022-11-14T05:57:13;3.20;;;1.00;;
75470;SDS011;64051;46.320;48.028;2022-11-14T05:59:58;2.10;;;0.73;;
75470;SDS011;64051;46.320;48.028;2022-11-14T06:02:42;3.22;;;0.98;;
75470;SDS011;64051;46.320;48.028;2022-11-14T06:05:29;1.60;;;0.85;;
75470;SDS011;64051;46.320;48.028;2022-11-14T06:08:13;1.08;;;0.60;;
75470;SDS011;64051;46.320;48.028;2022-11-14T06:11:07;2.00;;;0.65;;
75470;SDS011;64051;46.320;48.028;2022-11-14T06:13:53;2.58;;;0.82;;
75470;SDS011;64051;46.320;48.028;2022-11-14T06:16:38;1.90;;;1.02;;
75470;SDS011;64051;46.320;48.028;2022-11-14T06:19:25;2.35;;;0.90;;
75470;SDS011;64051;46.320;48.028;2022-11-14T06:22:10;1.17;;;0.73;;
75470;SDS011;64051;46.320;48.028;2022-11-14T06:24:54;0.60;;;0.60;;
75470;SDS011;64051;46.320;48.028;2022-11-14T06:27:39;0.98;;;0.70;;
75470;SDS011;64051;46.320;48.028;2022-11-14T06:30:23;4.22;;;1.17;;
75470;SDS011;64051;46.320;48.028;2022-11-14T06:33:08;0.52;;;0.43;;
75470;SDS011;64051;46.320;48.028;2022-11-14T06:35:56;1.17;;;0.65;;
75470;SDS011;64051;46.320;48.028;2022-11-14T06:38:44;1.25;;;0.80;;
75470;SDS011;64051;46.320;48.028;2022-11-14T06:41:29;1.92;;;1.00;;
75470;SDS011;64051;46.320;48.028;2022-11-14T06:44:13;4.75;;;0.80;;
75470;SDS011;64051;46.320;48.028;2022-11-14T06:46:58;1.40;;;0.82;;
75470;SDS011;64051;46.320;48.028;2022-11-14T06:49:42;2.53;;;0.90;;
75470;SDS011;64051;46.320;48.028;2022-11-14T06:52:27;3.08;;;0.80;;
75470;SDS011;64051;46.320;48.028;2022-11-14T06:55:11;1.85;;;0.80;;
75470;SDS011;64051;46.320;48.028;2022-11-14T06:57:59;4.78;;;0.90;;
75470;SDS011;64051;46.320;48.028;2022-11-14T07:00:43;1.77;;;1.00;;
75470;SDS011;64051;46.320;48.028;2022-11-14T07:03:28;2.15;;;0.90;;
75470;SDS011;64051;46.320;48.028;2022-11-14T07:06:16;1.42;;;0.95;;
75470;SDS011;64051;46.320;48.028;2022-11-14T07:09:04;3.00;;;1.05;;
75470;SDS011;64051;46.320;48.028;2022-11-14T07:11:48;2.67;;;0.68;;
75470;SDS011;64051;46.320;48.028;2022-11-14T07:14:34;0.77;;;0.70;;
75470;SDS011;64051;46.320;48.028;2022-11-14T07:17:19;4.30;;;0.95;;
75470;SDS011;64051;46.320;48.028;2022-11-14T07:20:03;3.20;;;1.10;;
75470;SDS011;64051;46.320;48.028;2022-11-14T07:22:48;3.85;;;1.35;;
75470;SDS011;64051;46.320;48.028;2022-11-14T07:25:33;2.15;;;1.17;;
75470;SDS011;64051;46.320;48.028;2022-11-14T07:28:17;2.90;;;1.02;;
75470;SDS011;64051;46.320;48.028;2022-11-14T07:31:02;1.67;;;1.00;;
75470;SDS011;64051;46.320;48.028;2022-11-14T07:33:51;5.25;;;1.77;;
75470;SDS011;64051;46.320;48.028;2022-11-14T07:36:37;6.78;;;2.33;;
75470;SDS011;64051;46.320;48.028;2022-11-14T07:39:24;2.40;;;1.00;;
75470;SDS011;64051;46.320;48.028;2022-11-14T07:42:09;2.97;;;1.10;;
75470;SDS011;64051;46.320;48.028;2022-11-14T07:44:53;3.30;;;1.15;;
75470;SDS011;64051;46.320;48.028;2022-11-14T07:47:38;4.43;;;1.17;;
75470;SDS011;64051;46.320;48.028;2022-11-14T07:50:23;2.53;;;1.02;;
75470;SDS011;64051;46.320;48.028;2022-11-14T07:53:08;1.77;;;1.08;;
75470;SDS011;64051;46.320;48.028;2022-11-14T07:55:53;3.05;;;1.60;;
75470;SDS011;64051;46.320;48.028;2022-11-14T07:58:39;4.13;;;1.10;;
75470;SDS011;64051;46.320;48.028;2022-11-14T08:01:24;2.33;;;1.13;;
75470;SDS011;64051;46.320;48.028;2022-11-14T08:04:09;3.63;;;1.10;;
75470;SDS011;64051;46.320;48.028;2022-11-14T08:06:54;2.50;;;0.90;;
75470;SDS011;64051;46.320;48.028;2022-11-14T08:09:39;2.22;;;1.20;;
75470;SDS011;64051;46.320;48.028;2022-11-14T08:12:23;1.88;;;1.02;;
75470;SDS011;64051;46.320;48.028;2022-11-14T08:15:08;0.82;;;0.60;;
75470;SDS011;64051;46.320;48.028;2022-11-14T08:18:31;3.85;;;1.10;;
75470;SDS011;64051;46.320;48.028;2022-11-14T08:21:16;5.75;;;1.10;;
75470;SDS011;64051;46.320;48.028;2022-11-14T08:24:00;1.40;;;1.00;;
75470;SDS011;64051;46.320;48.028;2022-11-14T08:26:45;1.67;;;0.82;;
75470;SDS011;64051;46.320;48.028;2022-11-14T08:29:29;0.77;;;0.63;;
75470;SDS011;64051;46.320;48.028;2022-11-14T08:32:17;4.82;;;1.42;;
75470;SDS011;64051;46.320;48.028;2022-11-14T08:35:02;5.72;;;1.40;;
75470;SDS011;64051;46.320;48.028;2022-11-14T08:37:47;3.42;;;1.40;;
75470;SDS011;64051;46.320;48.028;2022-11-14T08:40:31;7.28;;;2.25;;
75470;SDS011;64051;46.320;48.028;2022-11-14T08:43:16;3.95;;;1.05;;
75470;SDS011;64051;46.320;48.028;2022-11-14T08:46:01;2.03;;;0.70;;
75470;SDS011;64051;46.320;48.028;2022-11-14T08:48:47;0.65;;;0.65;;
75470;SDS011;64051;46.320;48.028;2022-11-14T08:51:32;2.10;;;0.90;;
75470;SDS011;64051;46.320;48.028;2022-11-14T08:54:19;4.57;;;1.38;;
75470;SDS011;64051;46.320;48.028;2022-11-14T08:57:04;3.78;;;0.93;;
75470;SDS011;64051;46.320;48.028;2022-11-14T08:59:49;4.05;;;0.80;;
75470;SDS011;64051;46.320;48.028;2022-11-14T09:02:33;1.40;;;0.80;;
75470;SDS011;64051;46.320;48.028;2022-11-14T09:05:18;1.58;;;0.85;;
75470;SDS011;64051;46.320;48.028;2022-11-14T09:08:02;1.15;;;0.60;;
75470;SDS011;64051;46.320;48.028;2022-11-14T09:10:47;1.15;;;0.65;;
75470;SDS011;64051;46.320;48.028;2022-11-14T09:13:35;0.73;;;0.73;;
75470;SDS011;64051;46.320;48.028;2022-11-14T09:16:20;1.92;;;0.90;;
75470;SDS011;64051;46.320;48.028;2022-11-14T09:19:04;1.50;;;0.90;;
75470;SDS011;64051;46.320;48.028;2022-11-14T09:21:48;1.95;;;0.68;;
75470;SDS011;64051;46.320;48.028;2022-11-14T09:24:33;4.30;;;0.90;;
75470;SDS011;64051;46.320;48.028;2022-11-14T09:27:17;2.05;;;1.00;;
75470;SDS011;64051;46.320;48.028;2022-11-14T09:30:02;1.52;;;0.90;;
75470;SDS011;64051;46.320;48.028;2022-11-14T09:32:48;1.63;;;0.93;;
75470;SDS011;64051;46.320;48.028;2022-11-14T09:35:32;1.05;;;0.90;;
75470;SDS011;64051;46.320;48.028;2022-11-14T09:38:18;2.13;;;0.95;;
75470;SDS011;64051;46.320;48.028;2022-11-14T09:44:25;0.80;;;0.80;;
75470;SDS011;64051;46.320;48.028;2022-11-14T09:47:13;2.33;;;0.90;;
75470;SDS011;64051;46.320;48.028;2022-11-14T09:50:23;1.50;;;0.90;;
75470;SDS011;64051;46.320;48.028;2022-11-14T09:53:15;1.40;;;0.75;;
75470;SDS011;64051;46.320;48.028;2022-11-14T09:56:10;3.42;;;1.08;;
75470;SDS011;64051;46.320;48.028;2022-11-14T09:58:57;2.22;;;0.80;;
75470;SDS011;64051;46.320;48.028;2022-11-14T10:01:45;0.63;;;0.60;;
75470;SDS011;64051;46.320;48.028;2022-11-14T10:10:57;0.70;;;0.70;;
75470;SDS011;64051;46.320;48.028;2022-11-14T10:20:54;1.80;;;0.90;;
75470;SDS011;64051;46.320;48.028;2022-11-14T10:23:39;0.98;;;0.60;;
75470;SDS011;64051;46.320;48.028;2022-11-14T10:26:37;1.30;;;0.90;;
75470;SDS011;64051;46.320;48.028;2022-11-14T10:39:10;1.60;;;0.90;;
75470;SDS011;64051;46.320;48.028;2022-11-14T10:42:06;1.98;;;0.90;;
75470;SDS011;64051;46.320;48.028;2022-11-14T10:44:57;3.70;;;0.88;;
75470;SDS011;64051;46.320;48.028;2022-11-14T10:47:48;1.00;;;0.90;;
75470;SDS011;64051;46.320;48.028;2022-11-14T10:50:45;0.77;;;0.77;;
75470;SDS011;64051;46.320;48.028;2022-11-14T10:56:26;1.38;;;1.00;;
75470;SDS011;64051;46.320;48.028;2022-11-14T10:59:11;1.30;;;0.90;;
75470;SDS011;64051;46.320;48.028;2022-11-14T11:01:56;2.45;;;0.90;;
75470;SDS011;64051;46.320;48.028;2022-11-14T11:04:43;1.92;;;0.85;;
75470;SDS011;64051;46.320;48.028;2022-11-14T11:07:28;1.25;;;0.70;;
75470;SDS011;64051;46.320;48.028;2022-11-14T11:10:40;0.80;;;0.80;;
75470;SDS011;64051;46.320;48.028;2022-11-14T11:13:52;7.32;;;1.20;;
75470;SDS011;64051;46.320;48.028;2022-11-14T11:16:38;1.90;;;0.90;;
75470;SDS011;64051;46.320;48.028;2022-11-14T11:19:23;2.42;;;0.90;;
75470;SDS011;64051;46.320;48.028;2022-11-14T11:22:28;1.23;;;0.80;;
75470;SDS011;64051;46.320;48.028;2022-11-14T11:25:24;2.13;;;1.00;;
75470;SDS011;64051;46.320;48.028;2022-11-14T11:28:16;3.28;;;0.85;;
75470;SDS011;64051;46.320;48.028;2022-11-14T11:31:08;1.48;;;0.95;;
75470;SDS011;64051;46.320;48.028;2022-11-14T11:33:53;0.85;;;0.70;;
75470;SDS011;64051;46.320;48.028;2022-11-14T11:36:41;1.23;;;0.88;;
75470;SDS011;64051;46.320;48.028;2022-11-14T11:39:30;0.82;;;0.50;;
75470;SDS011;64051;46.320;48.028;2022-11-14T11:42:25;1.27;;;0.80;;
75470;SDS011;64051;46.320;48.028;2022-11-14T11:45:19;2.65;;;0.80;;
75470;SDS011;64051;46.320;48.028;2022-11-14T11:48:18;2.72;;;1.02;;
75470;SDS011;64051;46.320;48.028;2022-11-14T11:51:05;4.20;;;1.02;;
75470;SDS011;64051;46.320;48.028;2022-11-14T11:54:03;4.25;;;1.00;;
75470;SDS011;64051;46.320;48.028;2022-11-14T11:57:11;2.97;;;0.85;;
75470;SDS011;64051;46.320;48.028;2022-11-14T12:00:02;1.75;;;0.80;;
75470;SDS011;64051;46.320;48.028;2022-11-14T12:03:02;4.28;;;1.20;;
75470;SDS011;64051;46.320;48.028;2022-11-14T12:09:31;1.95;;;0.80;;
75470;SDS011;64051;46.320;48.028;2022-11-14T12:12:23;0.85;;;0.75;;
75470;SDS011;64051;46.320;48.028;2022-11-14T12:24:53;2.08;;;0.80;;
75470;SDS011;64051;46.320;48.028;2022-11-14T12:31:31;1.70;;;0.82;;
75470;SDS011;64051;46.320;48.028;2022-11-14T12:34:26;3.75;;;0.80;;
75470;SDS011;64051;46.320;48.028;2022-11-14T12:37:21;1.70;;;0.80;;
75470;SDS011;64051;46.320;48.028;2022-11-14T12:40:23;2.25;;;0.77;;
75470;SDS011;64051;46.320;48.028;2022-11-14T12:43:27;1.00;;;0.77;;
75470;SDS011;64051;46.320;48.028;2022-11-14T12:46:14;2.88;;;1.02;;
75470;SDS011;64051;46.320;48.028;2022-11-14T12:49:01;1.10;;;0.88;;
75470;SDS011;64051;46.320;48.028;2022-11-14T12:52:48;3.47;;;1.10;;
75470;SDS011;64051;46.320;48.028;2022-11-14T13:08:45;2.20;;;1.08;;
75470;SDS011;64051;46.320;48.028;2022-11-14T13:11:58;3.05;;;1.00;;
75470;SDS011;64051;46.320;48.028;2022-11-14T13:15:29;2.05;;;1.05;;
75470;SDS011;64051;46.320;48.028;2022-11-14T13:18:34;1.67;;;0.90;;
75470;SDS011;64051;46.320;48.028;2022-11-14T13:21:37;2.05;;;0.98;;
75470;SDS011;64051;46.320;48.028;2022-11-14T13:27:41;2.30;;;0.93;;
75470;SDS011;64051;46.320;48.028;2022-11-14T13:33:55;4.85;;;0.90;;
75470;SDS011;64051;46.320;48.028;2022-11-14T13:36:48;2.30;;;1.05;;
75470;SDS011;64051;46.320;48.028;2022-11-14T13:42:55;6.05;;;0.80;;
75470;SDS011;64051;46.320;48.028;2022-11-14T13:49:33;3.90;;;0.98;;
75470;SDS011;64051;46.320;48.028;2022-11-14T13:52:27;1.42;;;0.63;;
75470;SDS011;64051;46.320;48.028;2022-11-14T14:07:19;0.65;;;0.60;;
75470;SDS011;64051;46.320;48.028;2022-11-14T14:10:34;2.58;;;0.90;;
75470;SDS011;64051;46.320;48.028;2022-11-14T14:16:33;1.15;;;0.82;;
75470;SDS011;64051;46.320;48.028;2022-11-14T14:32:28;0.70;;;0.70;;
75470;SDS011;64051;46.320;48.028;2022-11-14T16:03:09;2.45;;;0.88;;
75470;SDS011;64051;46.320;48.028;2022-11-14T16:05:58;2.30;;;1.00;;
75470;SDS011;64051;46.320;48.028;2022-11-14T16:08:51;1.95;;;0.80;;
75470;SDS011;64051;46.320;48.028;2022-11-14T16:11:39;0.85;;;0.70;;
75470;SDS011;64051;46.320;48.028;2022-11-14T16:14:24;0.95;;;0.70;;
75470;SDS011;64051;46.320;48.028;2022-11-14T16:17:17;1.27;;;0.77;;
75470;SDS011;64051;46.320;48.028;2022-11-14T16:20:02;2.80;;;1.00;;
75470;SDS011;64051;46.320;48.028;2022-11-14T16:22:53;1.60;;;1.00;;
75470;SDS011;64051;46.320;48.028;2022-11-14T16:25:39;1.58;;;1.00;;
75470;SDS011;64051;46.320;48.028;2022-11-14T16:28:27;0.70;;;0.70;;
75470;SDS011;64051;46.320;48.028;2022-11-14T16:31:20;1.45;;;1.13;;
75470;SDS011;64051;46.320;48.028;2022-11-14T16:34:09;0.75;;;0.75;;
75470;SDS011;64051;46.320;48.028;2022-11-14T16:37:12;1.23;;;0.88;;
75470;SDS011;64051;46.320;48.028;2022-11-14T16:39:57;1.40;;;0.82;;
75470;SDS011;64051;46.320;48.028;2022-11-14T16:42:45;1.63;;;0.90;;
75470;SDS011;64051;46.320;48.028;2022-11-14T16:45:30;2.00;;;0.80;;
75470;SDS011;64051;46.320;48.028;2022-11-14T16:48:27;1.73;;;1.02;;
75470;SDS011;64051;46.320;48.028;2022-11-14T16:51:20;3.53;;;1.10;;
75470;SDS011;64051;46.320;48.028;2022-11-14T16:54:12;2.22;;;1.20;;
75470;SDS011;64051;46.320;48.028;2022-11-14T16:57:08;4.85;;;1.10;;
75470;SDS011;64051;46.320;48.028;2022-11-14T16:59:55;2.45;;;1.23;;
75470;SDS011;64051;46.320;48.028;2022-11-14T17:02:41;2.30;;;0.93;;
75470;SDS011;64051;46.320;48.028;2022-11-14T17:05:25;1.45;;;0.90;;
75470;SDS011;64051;46.320;48.028;2022-11-14T17:08:13;4.20;;;1.30;;
75470;SDS011;64051;46.320;48.028;2022-11-14T17:46:55;3.83;;;2.25;;
75470;SDS011;64051;46.320;48.028;2022-11-14T17:49:43;6.97;;;2.90;;
75470;SDS011;64051;46.320;48.028;2022-11-14T17:52:27;3.78;;;2.00;;
75470;SDS011;64051;46.320;48.028;2022-11-14T17:55:21;4.97;;;1.80;;
75470;SDS011;64051;46.320;48.028;2022-11-14T17:58:06;2.42;;;1.40;;
75470;SDS011;64051;46.320;48.028;2022-11-14T18:00:53;2.17;;;1.27;;
75470;SDS011;64051;46.320;48.028;2022-11-14T18:03:38;2.08;;;1.17;;
75470;SDS011;64051;46.320;48.028;2022-11-14T18:06:26;3.13;;;1.50;;
75470;SDS011;64051;46.320;48.028;2022-11-14T18:09:13;2.60;;;1.40;;
75470;SDS011;64051;46.320;48.028;2022-11-14T18:12:01;1.60;;;1.20;;
75470;SDS011;64051;46.320;48.028;2022-11-14T18:14:48;3.38;;;1.20;;
75470;SDS011;64051;46.320;48.028;2022-11-14T18:17:35;4.10;;;0.90;;
75470;SDS011;64051;46.320;48.028;2022-11-14T18:23:06;3.65;;;1.40;;
75470;SDS011;64051;46.320;48.028;2022-11-14T18:25:51;1.80;;;1.15;;
75470;SDS011;64051;46.320;48.028;2022-11-14T18:28:35;1.60;;;1.00;;
75470;SDS011;64051;46.320;48.028;2022-11-14T18:31:20;1.33;;;0.95;;
75470;SDS011;64051;46.320;48.028;2022-11-14T18:34:04;1.38;;;0.80;;
75470;SDS011;64051;46.320;48.028;2022-11-14T18:36:52;1.80;;;0.90;;
75470;SDS011;64051;46.320;48.028;2022-11-14T18:39:40;2.13;;;0.98;;
75470;SDS011;64051;46.320;48.028;2022-11-14T18:42:24;1.05;;;0.70;;
75470;SDS011;64051;46.320;48.028;2022-11-14T18:45:14;1.92;;;1.20;;
75470;SDS011;64051;46.320;48.028;2022-11-14T18:47:59;1.65;;;1.00;;
75470;SDS011;64051;46.320;48.028;2022-11-14T18:50:46;1.20;;;0.73;;
75470;SDS011;64051;46.320;48.028;2022-11-14T18:53:32;2.05;;;1.27;;
75470;SDS011;64051;46.320;48.028;2022-11-14T18:56:18;1.08;;;0.98;;
75470;SDS011;64051;46.320;48.028;2022-11-14T18:59:04;3.95;;;1.17;;
75470;SDS011;64051;46.320;48.028;2022-11-14T19:01:52;2.08;;;1.15;;
75470;SDS011;64051;46.320;48.028;2022-11-14T19:04:37;1.73;;;1.42;;
75470;SDS011;64051;46.320;48.028;2022-11-14T19:07:24;2.00;;;1.42;;
75470;SDS011;64051;46.320;48.028;2022-11-14T19:10:08;2.35;;;1.40;;
75470;SDS011;64051;46.320;48.028;2022-11-14T19:12:53;2.03;;;1.10;;
75470;SDS011;64051;46.320;48.028;2022-11-14T19:15:38;3.22;;;1.67;;
75470;SDS011;64051;46.320;48.028;2022-11-14T19:18:23;2.35;;;1.40;;
75470;SDS011;64051;46.320;48.028;2022-11-14T19:21:08;2.17;;;1.23;;
75470;SDS011;64051;46.320;48.028;2022-11-14T19:23:53;2.83;;;1.27;;
75470;SDS011;64051;46.320;48.028;2022-11-14T19:26:38;2.33;;;1.23;;
75470;SDS011;64051;46.320;48.028;2022-11-14T19:29:22;2.10;;;1.20;;
75470;SDS011;64051;46.320;48.028;2022-11-14T19:32:09;2.65;;;1.40;;
75470;SDS011;64051;46.320;48.028;2022-11-14T19:34:53;2.13;;;1.15;;
75470;SDS011;64051;46.320;48.028;2022-11-14T19:37:38;2.47;;;1.33;;
75470;SDS011;64051;46.320;48.028;2022-11-14T20:30:15;1.60;;;0.82;;
75470;SDS011;64051;46.320;48.028;2022-11-14T20:33:02;3.65;;;1.23;;
75470;SDS011;64051;46.320;48.028;2022-11-14T20:35:47;2.33;;;1.02;;
75470;SDS011;64051;46.320;48.028;2022-11-14T20:38:32;0.98;;;0.90;;
75470;SDS011;64051;46.320;48.028;2022-11-14T20:41:16;2.22;;;1.00;;
75470;SDS011;64051;46.320;48.028;2022-11-14T20:44:02;1.50;;;0.70;;
75470;SDS011;64051;46.320;48.028;2022-11-14T20:46:46;1.27;;;0.90;;
75470;SDS011;64051;46.320;48.028;2022-11-14T20:49:31;1.80;;;1.10;;
75470;SDS011;64051;46.320;48.028;2022-11-14T20:52:15;6.15;;;0.90;;
75470;SDS011;64051;46.320;48.028;2022-11-14T20:55:01;0.82;;;0.80;;
75470;SDS011;64051;46.320;48.028;2022-11-14T20:57:45;2.28;;;0.70;;
75470;SDS011;64051;46.320;48.028;2022-11-14T21:00:30;1.67;;;0.95;;
75470;SDS011;64051;46.320;48.028;2022-11-14T21:03:15;0.50;;;0.40;;
75470;SDS011;64051;46.320;48.028;2022-11-14T21:06:00;1.58;;;0.80;;
75470;SDS011;64051;46.320;48.028;2022-11-14T21:08:45;1.30;;;1.10;;
75470;SDS011;64051;46.320;48.028;2022-11-14T21:11:30;1.55;;;1.25;;
75470;SDS011;64051;46.320;48.028;2022-11-14T21:14:14;1.10;;;0.75;;